You are here:
  • Home »
  • Tender »
  • Open Tender Enquiry

Open Tender Enquiry

Sl.No. Enquiry No. Date Due on Short Description
17701 1/PE220105/7 19.04.2022 25.05.2022 Lifebouy Soap
17702 1/PE220279/8 19.04.2022 25.05.2022 Cable
17703 1/PE220309/8 19.04.2022 25.05.2022 Power Capacitor
17704 1/PE220332/8 19.04.2022 25.05.2022 Tools
17705 1/PE22033/8 19.04.2022 25.05.2022 Oil Measuring Can
17706 2/PE220300/8 13/04/2022 24/05/2022 CHEMICALS
17707 2/PE220287/8 13/04/2022 24/05/2022 RUBBER INSERTION SHEET
17708 2/PE220171/8 13/04/2022 24/05/2022 SIGHT GAUGE
17709 2/PE220257/1 13/04/2022 25/05/2022 SPARE FOR GROUND HOPPER FEEDER
17710 2/PE220263/1 13/04/2022 25/05/2022 SHAFT,PROPELLER & COUPLING FOR PS TANKE
17711 2/PE220286/8 13/04/2022 25/05/2022 DIAPHRAGM VALVE
17412 GEM/2022/B/2055345 Corrigendum-I ----- 05.05.2022 Vertical Centrifugal slurry sump pump 50m3/hr 30m (Q3)
17712 GEM/2022/B/2094578 02-05-2022 23-05-2022 Winding Ropes
17713 GEM/2022/B/2125218 02-05-2022 23-05-2022 Spare for DG set Make
17714 GEM/2022/B/2129920 02-05-2022 23-05-2022 Induction Motor 0617
17715
GEM/2022/B/2135845
02-05-2022 23-05-2022 Ceiling Fan-BLDC(Q3)
17716 GEM/2022/B/2145071 02-05-2022 23-05-2022 LED Bulk head Light(Q3)
17717
GEM/2022/B/2145183
02-05-2022 23-05-2022 Steel Wire Rope
17718 2/PE210845/1 15/04/2022 30/05/2022 GREEN BELT FOR PUMP
17719 2/PE220313/1 15/04/2022 30/05/2022 V-GROOVE PULLEY
17720 2/PE220312/8 15/04/2022 30/05/2022 LEVEL TRANSMITTER
17721 2/PE220327/1 15/04/2022 30/05/2022 PERISTALTIC PUMP
17722 GEM/2022/B/2142988 04-05-2022 20-05-2022 Spares for HBF (Roller)
17723 GEM/2022/B/2143201 04-05-2022 21-05-2022 Spares for HBF-32B/09-30V
17724 GEM/2022/B/2143286 04-05-2022 23-05-2022 Spares for HBF-32B/09-30V
17725 3/PE220353/1 21/04/2022 26/05/2022 Gate End Box
17726 3/PE220255/8 21/04/2022 26/05/2022 Cross Bearing
17727 3/PE220114/7 21/04/2022 26/05/2022 Gauge
17728 3/PE220338/1 21/04/2022 26/05/2022 Rock Bolt Grounting Adaptor
17729 GEM/2022/B/2149624 05-05-2022 26-05-2022 Fire Hose Cabinet
17730 GEM/2022/B/2149893 05-05-2022 26-05-2022 LED tube light
17731 GEM/2022/B/2150211 05-05-2022 26-05-2022 Led Flood Light
17732 1/PE220161/1 30.04.2022 31.05.2022 Fabric pin up notice boards
17733 2/PE220150/1 27.04.2022 27.05.2022 Inductive slot sensors
17734 3/PE220153/1 27.04.2022 27.05.2022 Graholog H 1 spray
17735 2/PE220162/1 30.04.2022 31.05.2022 Drager breathing bag
17736 1/PE220158/1 29.04.2022 31.05.2022 Smps for lipi-2280 plus printer
17737 1/PE220151/1 27.04.2022 27.05.2022 Angle ring HJ 224 EC.
17738 3/PE220323/1 02/05/2022 08/06/2022 Pin & Nut
17739 3/PE220317/1 02/05/2022 08/06/2022 LED Light Fittings
17740 3/PE220265/1 02/05/2022 08/06/2022 Super Electrosafe
17741 3/PE220308/8 02/05/2022 08/06/2022 Spares for Drill Jumbo
17742 3/PE220291/8 02/05/2022 08/06/2022 Tyre & Tube
17743 3/PE220289/8 02/05/2022 08/06/2022 Insulating Vernish
17744 3/PE220343/8 06/05/2022 18/05/2022 Hydraulic Cartridge
17745 3/PE220321/8 02/05/2022 08/06/2022 Brake Shoe with Liner
17746 3/PE220324/1 02/05/2022 08/06/2022 Tyre & Tube
17747 3/PE220112/7 02/05/2022 08/06/2022 Coolant
17748 3/PE220117/7 02/05/2022 08/06/2022 Sponge Foam Sheet
17749 3/PE220302/8 02/05/2022 08/06/2022 Spares for Underground Vehicle
17750 3/PE220194/8 02/05/2022 08/06/2022 Oil Seal
17751 3/PE220364/1 02/05/2022 08/06/2022 Head Light & Bulb
17752 3/PE220115/7 02/05/2022 08/06/2022 Spares for Self Priming Pump
17753 3/PE220348/8 26/04/2022 30/05/2022 Spares for Jaw Crusher
17754 3/PE210278/7 26/04/2022 30/05/2022 Phosphorus Bronze Bush
17755 3/PE220119/7 26/04/2022 30/05/2022 Nut & Stud
17756 3/PE220354/1 30/04/2022 02/06/2022 Carbon Brush
17757 3/PE220288/8 30/04/2022 02/06/2022 Tube Projacket Sleeve
17758 3/PE220376/1 30/04/2022 02/06/2022 Active Bus Module
17759 3/PE220125/7 30/04/2022 02/06/2022 Steering Unit
17760 3/PE220126/7 30/04/2022 02/06/2022 Spares for LED Caplamp
17761 1/PE220254/1 04.05.2022 07.06.2022 Induction Motor
17762 1/PE220342/1 04.05.2022 07.06.2022 Printing Items
17763 1/PE220345/1 04.05.2022 07.06.2022 Telephone Cable
17764 1/PE220346/1 04.05.2022 07.06.2022 Cups
17765 1/PE220347/1 04.05.2022 07.06.2022 Motor
17766 1/PE220349/1 04.05.2022 07.06.2022 Hacksaw Blade
17767 1/PE220350/1 04.05.2022 07.06.2022 Induction Motor
17768 1/PE220373/1 04.05.2022 07.06.2022 Motor
17769 1/PE220381/1 04.05.2022 07.06.2022 Bearing
17770 GEM/2022/B/2154643 05-05-2022 16-05-2022 liquid oxygen in metric ton (Q3)
17771 2/PE220406/1 07/05/2022 14/05/2022 SPARES FOR HBF
17772 GEM/2022/B/2156416 06-05-2022 16-05-2022 Sulphuric acid in tanker as per IS:266 (Q3)
17773 GEM/2022/B/2163591 09.05.2022 30.05.2022 LT Capacitors banks
17774 GEM/2022/B/2159160 11-05-2022 01-06-2022 Zinc commercial, zinc composition: 99.5%make:

HindustanZinc/Vedanta/Binani (Q3)
17775 GEM/2022/B/2167901 11-05-2022 01-06-2022 DESIGNING SOFTWARE (Version 2.0) (Q3)
17776 2/PE220400/1 06/05/2022 13/06/2022 TUNGSTON & DEUTERIUM LAMP
17777 2/PE220389/8 06/05/2022 13/06/2022 COUPLING BUSH
17778 2/PE220398/1 06/05/2022 13/06/2022 LIQUID PARAFFIN
17779 2/PE220383/1 06/05/2022 13/06/2022 METALLIC ELECTRODE
17780 2/PE220386/1 06/05/2022 13/06/2022 KETTLE ELEMENT
17781 2/PE220385/1 06/05/2022 13/06/2022 SPARE MUFFLE
17782 2/PE220357/1 06/05/2022 13/06/2022 TYRE COUPLING
17783 2/PE220386/8 06/05/2022 13/06/2022 VIBRATING FEEDER
17784 1/PE220343/1 06.05.2022 13.06.2022 Bearing
17785 1/PE220344/1 06.05.2022 13.06.2022 Napthalene Ball
17786 1/PE220348/1 06.05.2022 13.06.2022 Phosphorous Bronze Bar
17787 1/PE220374/1 06.05.2022 13.06.2022 Bulkhead Fitting
17788 1/PE220377/1 06.05.2022 13.06.2022 Copper Cable
17789 1/PE210271/7 11.05.2022 16.06.2022 Stationery items
17790 1/PE210291/7 11.05.2022 16.06.2022 Nuts & Bolts
17791 1/PE220124/7 11.05.2022 16.06.2022 Stationery items
17792 1/PE220138/7 11.05.2022 16.06.2022 Winding Tamperature
17793 1/PE220372/1 11.05.2022 16.06.2022 Spare Indoor Unit
17794 1/PE220375/1 11.05.2022 16.06.2022 Control Relay
17795 1/PE220411/1 11.05.2022 16.06.2022 Bearing
17796 1/PE220412/1 11.05.2022 16.06.2022 Hand Set Cord
17797 1/PE220413/1 11.05.2022 16.06.2022 AC Drive
17798 1/PE220414/1 11.05.2022 16.06.2022 Threading Tool
17799 3/PE220133/1 26/04/2022 13/06/2022 Spares for Boomer
17800 2/PE220168/1 06.05.2022 03.06.2022 Ms flanges